createdAt,value
2023-05-09T00:01:30.650Z,102108.05
2023-05-09T00:03:59.244Z,102106.48
2023-05-09T00:06:27.070Z,102103.38
2023-05-09T00:08:55.478Z,102101.45
2023-05-09T00:11:23.752Z,102100.59
2023-05-09T00:13:52.642Z,102099.02
2023-05-09T00:16:23.502Z,102095.88
2023-05-09T00:18:52.145Z,102094.84
2023-05-09T00:21:20.481Z,102094.48
2023-05-09T00:23:48.721Z,102098.28
2023-05-09T00:26:17.183Z,102088.91
2023-05-09T00:28:45.692Z,102092.89
2023-05-09T00:31:14.093Z,102093.59
2023-05-09T00:33:42.449Z,102093.92
2023-05-09T00:36:10.814Z,102093.55
2023-05-09T00:38:39.115Z,102091.12
2023-05-09T00:41:07.055Z,102096.13
2023-05-09T00:43:35.471Z,102095.22
2023-05-09T00:46:03.834Z,102093.97
2023-05-09T00:48:32.336Z,102100.18
2023-05-09T00:51:00.935Z,102097.91
2023-05-09T00:53:29.352Z,102094.44
2023-05-09T00:55:58.001Z,102092.52
2023-05-09T00:58:26.517Z,102089.24
2023-05-09T01:00:54.858Z,102087.34
2023-05-09T01:03:23.309Z,102089.61
2023-05-09T01:05:57.833Z,102085.98
2023-05-09T01:08:41.556Z,102085.45
2023-05-09T01:11:16.499Z,102080.42
2023-05-09T01:13:52.626Z,102083.86
2023-05-09T01:16:26.747Z,102086.79
2023-05-09T01:19:00.961Z,102090.39
2023-05-09T01:21:31.619Z,102095.04
2023-05-09T01:24:24.887Z,102091.88
2023-05-09T01:26:56.731Z,102089.77
2023-05-09T01:29:42.489Z,102090.27
2023-05-09T01:32:15.539Z,102088.18
2023-05-09T01:34:45.082Z,102088.00
2023-05-09T01:37:15.649Z,102090.92
2023-05-09T01:39:48.529Z,102086.93
2023-05-09T01:42:18.730Z,102090.17
2023-05-09T01:44:47.522Z,102087.23
2023-05-09T01:47:16.581Z,102083.09
2023-05-09T01:49:45.389Z,102084.83
2023-05-09T01:52:16.046Z,102082.17
2023-05-09T01:54:45.255Z,102086.16
2023-05-09T01:57:15.153Z,102092.52
2023-05-09T01:59:44.753Z,102096.11
2023-05-09T02:02:13.374Z,102089.70
2023-05-09T02:04:41.014Z,102091.42
2023-05-09T02:07:10.204Z,102091.05
2023-05-09T02:09:38.666Z,102092.77
2023-05-09T02:12:07.646Z,102083.59
2023-05-09T02:14:36.039Z,102089.80
2023-05-09T02:17:06.294Z,102093.41
2023-05-09T02:19:35.502Z,102091.65
2023-05-09T02:22:04.426Z,102082.13
2023-05-09T02:24:33.888Z,102082.77
2023-05-09T02:27:03.619Z,102089.15
2023-05-09T02:29:39.642Z,102087.36
2023-05-09T02:32:09.317Z,102082.45
2023-05-09T02:34:38.404Z,102088.79
2023-05-09T02:37:07.632Z,102089.08
2023-05-09T02:39:36.183Z,102083.87
2023-05-09T02:42:09.034Z,102085.60
2023-05-09T02:44:38.434Z,102083.88
2023-05-09T02:47:07.330Z,102080.08
2023-05-09T02:49:35.605Z,102082.98
2023-05-09T02:52:05.193Z,102079.70
2023-05-09T02:54:33.688Z,102080.26
2023-05-09T02:57:02.401Z,102084.61
2023-05-09T02:59:29.834Z,102084.62
2023-05-09T03:01:58.852Z,102085.84
2023-05-09T03:04:28.343Z,102085.31
2023-05-09T03:06:56.689Z,102082.37
2023-05-09T03:09:26.342Z,102083.08
2023-05-09T03:11:55.952Z,102081.38
2023-05-09T03:14:24.256Z,102072.06
2023-05-09T03:16:52.565Z,102080.71
2023-05-09T03:19:30.753Z,102080.05
2023-05-09T03:21:59.196Z,102080.98
2023-05-09T03:24:28.021Z,102080.30
2023-05-09T03:26:56.468Z,102081.86
2023-05-09T03:29:25.240Z,102079.11
2023-05-09T03:31:53.789Z,102079.14
2023-05-09T03:34:21.367Z,102082.82
2023-05-09T03:36:49.695Z,102083.73
2023-05-09T03:39:18.087Z,102081.37
2023-05-09T03:41:48.626Z,102079.67
2023-05-09T03:44:16.969Z,102081.09
2023-05-09T03:46:45.312Z,102094.95
2023-05-09T03:49:13.107Z,102101.52
2023-05-09T03:51:42.321Z,102099.27
2023-05-09T03:54:13.502Z,102100.69
2023-05-09T03:56:41.883Z,102103.14
2023-05-09T03:59:10.625Z,102103.23
2023-05-09T04:01:40.185Z,102106.42
2023-05-09T04:04:09.377Z,102110.45
2023-05-09T04:06:37.309Z,102108.61
2023-05-09T04:09:06.588Z,102108.46
2023-05-09T04:11:34.079Z,102105.56
2023-05-09T04:14:06.268Z,102101.45
2023-05-09T04:16:36.521Z,102100.25
2023-05-09T04:19:06.480Z,102099.43
2023-05-09T04:21:34.965Z,102097.58
2023-05-09T04:24:05.135Z,102093.65
2023-05-09T04:26:43.478Z,102092.33
2023-05-09T04:29:15.367Z,102086.48
2023-05-09T04:31:49.511Z,102090.47
2023-05-09T04:34:18.109Z,102086.27
2023-05-09T04:36:45.625Z,102086.92
2023-05-09T04:39:14.310Z,102082.34
2023-05-09T04:41:49.244Z,102084.24
2023-05-09T04:44:18.478Z,102086.31
2023-05-09T04:46:47.081Z,102083.54
2023-05-09T04:49:14.615Z,102083.16
2023-05-09T04:51:44.769Z,102086.39
2023-05-09T04:54:13.607Z,102087.86
2023-05-09T04:56:42.240Z,102083.77
2023-05-09T04:59:10.655Z,102085.79
2023-05-09T05:01:39.307Z,102085.01
2023-05-09T05:04:06.765Z,102079.51
2023-05-09T05:06:35.061Z,102081.81
2023-05-09T05:09:02.998Z,102078.54
2023-05-09T05:11:31.612Z,102080.17
2023-05-09T05:14:00.517Z,102077.41
2023-05-09T05:16:29.140Z,102077.59
2023-05-09T05:18:58.116Z,102076.27
2023-05-09T05:21:26.939Z,102077.55
2023-05-09T05:23:54.479Z,102073.89
2023-05-09T05:26:22.789Z,102070.62
2023-05-09T05:28:54.788Z,102074.63
2023-05-09T05:31:23.487Z,102071.89
2023-05-09T05:33:51.824Z,102074.21
2023-05-09T05:36:20.826Z,102076.23
2023-05-09T05:38:49.444Z,102071.50
2023-05-09T05:41:18.311Z,102065.39
2023-05-09T05:43:47.166Z,102059.76
2023-05-09T05:46:16.415Z,102051.34
2023-05-09T05:48:44.818Z,102054.74
2023-05-09T05:51:12.255Z,102055.69
2023-05-09T05:53:42.108Z,102052.61
2023-05-09T05:56:10.953Z,102051.80
2023-05-09T05:58:39.303Z,102049.49
2023-05-09T06:01:08.663Z,102048.73
2023-05-09T06:03:38.095Z,102044.00
2023-05-09T06:06:08.612Z,102043.95
2023-05-09T06:08:37.098Z,102041.58
2023-05-09T06:11:05.308Z,102043.52
2023-05-09T06:13:34.899Z,102040.40
2023-05-09T06:16:18.745Z,102041.48
2023-05-09T06:18:51.486Z,102039.10
2023-05-09T06:21:22.323Z,102036.74
2023-05-09T06:24:02.056Z,102036.00
2023-05-09T06:26:34.786Z,102036.81
2023-05-09T06:29:03.224Z,102026.40
2023-05-09T06:31:32.503Z,102025.69
2023-05-09T06:34:00.802Z,102026.13
2023-05-09T06:36:29.184Z,102022.58
2023-05-09T06:38:57.754Z,102017.02
2023-05-09T06:41:26.495Z,102014.80
2023-05-09T06:43:54.939Z,102016.39
2023-05-09T06:46:23.290Z,102013.11
2023-05-09T06:48:51.661Z,102011.96
2023-05-09T06:51:20.039Z,102009.85
2023-05-09T06:53:48.332Z,102008.90
2023-05-09T06:56:20.027Z,102007.89
2023-05-09T06:58:49.049Z,102003.56
2023-05-09T07:01:17.722Z,102002.60
2023-05-09T07:03:46.860Z,101999.46
2023-05-09T07:06:15.178Z,101996.56
2023-05-09T07:08:43.686Z,101994.64
2023-05-09T07:11:12.044Z,101995.35
2023-05-09T07:13:40.860Z,101996.98
2023-05-09T07:16:09.778Z,101990.88
2023-05-09T07:18:38.566Z,101984.55
2023-05-09T07:21:07.090Z,101984.64
2023-05-09T07:23:35.867Z,101982.11
2023-05-09T07:26:04.351Z,101979.68
2023-05-09T07:28:32.758Z,101974.22
2023-05-09T07:31:01.121Z,101973.48
2023-05-09T07:33:29.687Z,101971.19
2023-05-09T07:35:59.706Z,101964.52
2023-05-09T07:38:28.094Z,101965.08
2023-05-09T07:40:56.418Z,101965.14
2023-05-09T07:43:24.815Z,101961.70
2023-05-09T07:45:53.411Z,101954.80
2023-05-09T07:48:21.810Z,101956.30
2023-05-09T07:50:50.128Z,101957.66
2023-05-09T07:53:18.448Z,101958.80
2023-05-09T07:55:49.486Z,101959.55
2023-05-09T07:58:17.942Z,101959.94
2023-05-09T08:00:46.247Z,101961.26
2023-05-09T08:03:14.722Z,101956.94
2023-05-09T08:05:43.172Z,101954.52
2023-05-09T08:08:11.669Z,101952.65
2023-05-09T08:10:39.985Z,101953.48
2023-05-09T08:13:08.877Z,101954.02
2023-05-09T08:15:37.330Z,101951.89
2023-05-09T08:18:06.059Z,101951.81
2023-05-09T08:20:38.591Z,101949.16
2023-05-09T08:23:06.928Z,101949.24
2023-05-09T08:25:35.161Z,101947.10
2023-05-09T08:28:03.774Z,101950.45
2023-05-09T08:30:32.182Z,101948.59
2023-05-09T08:33:00.557Z,101940.48
2023-05-09T08:35:28.953Z,101942.52
2023-05-09T08:37:57.286Z,101941.25
2023-05-09T08:40:25.513Z,101934.16
2023-05-09T08:42:54.017Z,101928.38
2023-05-09T08:45:25.733Z,101933.41
2023-05-09T08:47:54.435Z,101930.14
2023-05-09T08:50:23.324Z,101928.16
2023-05-09T08:52:52.147Z,101927.98
2023-05-09T08:55:21.106Z,101925.64
2023-05-09T08:57:50.191Z,101920.42
2023-05-09T09:00:20.815Z,101918.80
2023-05-09T09:02:50.772Z,101908.05
2023-05-09T09:05:40.263Z,101910.59
2023-05-09T09:08:09.105Z,101910.05
2023-05-09T09:10:40.455Z,101910.32
2023-05-09T09:13:09.315Z,101912.08
2023-05-09T09:15:38.659Z,101911.41
2023-05-09T09:18:09.195Z,101908.11
2023-05-09T09:20:40.654Z,101906.52
2023-05-09T09:23:10.574Z,101908.90
2023-05-09T09:25:39.062Z,101904.60
2023-05-09T09:28:07.565Z,101901.18
2023-05-09T09:30:36.217Z,101904.02
2023-05-09T09:33:07.074Z,101900.30
2023-05-09T09:35:40.784Z,101893.53
2023-05-09T09:38:09.037Z,101894.93
2023-05-09T09:40:39.876Z,101896.98
2023-05-09T09:43:08.310Z,101894.55
2023-05-09T09:45:37.620Z,101886.11
2023-05-09T09:48:07.724Z,101880.59
2023-05-09T09:50:36.321Z,101883.42
2023-05-09T09:53:04.836Z,101888.08
2023-05-09T09:55:35.577Z,101891.33
2023-05-09T09:58:03.959Z,101888.52
2023-05-09T10:00:32.335Z,101890.33
2023-05-09T10:03:00.809Z,101889.94
2023-05-09T10:05:30.736Z,101880.80
2023-05-09T10:08:00.229Z,101881.09
2023-05-09T10:10:29.609Z,101879.02
2023-05-09T10:12:59.132Z,101875.55
2023-05-09T10:15:33.451Z,101865.73
2023-05-09T10:18:07.889Z,101872.66
2023-05-09T10:20:39.063Z,101866.70
2023-05-09T10:23:11.187Z,101858.55
2023-05-09T10:25:43.685Z,101855.86
2023-05-09T10:28:14.862Z,101848.13
2023-05-09T10:30:53.497Z,101856.19
2023-05-09T10:33:27.254Z,101862.89
2023-05-09T10:35:56.317Z,101855.45
2023-05-09T10:38:25.407Z,101849.39
2023-05-09T10:40:54.102Z,101848.45
2023-05-09T10:43:24.361Z,101845.27
2023-05-09T10:45:53.068Z,101835.02
2023-05-09T10:48:21.985Z,101833.47
2023-05-09T10:50:50.791Z,101828.79
2023-05-09T10:53:21.004Z,101835.05
2023-05-09T10:55:51.682Z,101839.91
2023-05-09T10:58:26.094Z,101837.69
2023-05-09T11:00:57.139Z,101825.68
2023-05-09T11:03:27.026Z,101825.82
2023-05-09T11:05:56.458Z,101824.73
2023-05-09T11:08:28.962Z,101821.98
2023-05-09T11:10:59.911Z,101825.52
2023-05-09T11:13:32.612Z,101816.30
2023-05-09T11:16:11.576Z,101810.77
2023-05-09T11:18:53.128Z,101807.08
2023-05-09T11:21:22.274Z,101807.36
2023-05-09T11:23:55.124Z,101797.40
2023-05-09T11:26:30.265Z,101798.41
2023-05-09T11:29:00.157Z,101792.35
2023-05-09T11:31:28.513Z,101795.26
2023-05-09T11:34:04.095Z,101795.42
2023-05-09T11:36:32.974Z,101789.20
2023-05-09T11:39:03.309Z,101781.99
2023-05-09T11:41:31.926Z,101778.15
2023-05-09T11:44:00.599Z,101782.55
2023-05-09T11:46:29.448Z,101771.80
2023-05-09T11:48:59.415Z,101770.20
2023-05-09T11:51:28.220Z,101761.46
2023-05-09T11:53:56.550Z,101755.98
2023-05-09T11:56:24.847Z,101759.83
2023-05-09T11:58:53.307Z,101743.08
2023-05-09T12:01:22.958Z,101749.04
2023-05-09T12:03:51.510Z,101741.93
2023-05-09T12:06:20.420Z,101735.40
2023-05-09T12:08:48.736Z,101732.66
2023-05-09T12:11:17.819Z,101729.45
2023-05-09T12:13:47.129Z,101730.83
2023-05-09T12:16:15.843Z,101730.54
2023-05-09T12:18:48.391Z,101727.02
2023-05-09T12:21:16.923Z,101730.85
2023-05-09T12:23:45.647Z,101728.42
2023-05-09T12:26:14.380Z,101726.20
2023-05-09T12:28:43.144Z,101715.10
2023-05-09T12:31:12.354Z,101710.66
2023-05-09T12:33:40.851Z,101709.11
2023-05-09T12:36:11.282Z,101706.61
2023-05-09T12:38:40.079Z,101701.14
2023-05-09T12:41:21.911Z,101701.77
2023-05-09T12:43:58.815Z,101698.05
2023-05-09T12:46:27.844Z,101695.20
2023-05-09T12:48:56.823Z,101687.55
2023-05-09T12:51:25.606Z,101690.63
2023-05-09T12:53:54.010Z,101682.00
2023-05-09T12:56:23.053Z,101678.78
2023-05-09T12:58:52.876Z,101677.70
2023-05-09T13:01:22.675Z,101678.29
2023-05-09T13:04:01.092Z,101668.48
2023-05-09T13:06:30.240Z,101667.36
2023-05-09T13:09:00.472Z,101662.54
2023-05-09T13:11:29.272Z,101660.91
2023-05-09T13:13:57.893Z,101659.86
2023-05-09T13:16:27.043Z,101656.70
2023-05-09T13:18:55.445Z,101649.90
2023-05-09T13:21:23.874Z,101648.05
2023-05-09T13:23:52.317Z,101651.66
2023-05-09T13:26:20.886Z,101649.83
2023-05-09T13:28:49.191Z,101651.04
2023-05-09T13:31:18.064Z,101639.45
2023-05-09T13:33:46.871Z,101639.33
2023-05-09T13:36:16.144Z,101634.91
2023-05-09T13:38:45.144Z,101626.50
2023-05-09T13:41:19.145Z,101631.31
2023-05-09T13:43:47.515Z,101628.26
2023-05-09T13:46:16.116Z,101623.37
2023-05-09T13:48:44.700Z,101619.73
2023-05-09T13:51:13.299Z,101610.61
2023-05-09T13:53:41.627Z,101615.40
2023-05-09T13:56:10.020Z,101610.52
2023-05-09T13:58:38.333Z,101613.95
2023-05-09T14:01:06.744Z,101612.41
2023-05-09T14:03:35.162Z,101609.83
2023-05-09T14:06:03.957Z,101602.55
2023-05-09T14:08:32.470Z,101600.27
2023-05-09T14:11:00.789Z,101603.48
2023-05-09T14:13:31.140Z,101600.08
2023-05-09T14:15:59.422Z,101602.17
2023-05-09T14:18:30.558Z,101596.21
2023-05-09T14:20:58.800Z,101594.23
2023-05-09T14:23:27.179Z,101591.08
2023-05-09T14:25:55.860Z,101590.67
2023-05-09T14:28:24.350Z,101586.71
2023-05-09T14:30:52.997Z,101580.10
2023-05-09T14:33:21.350Z,101579.09
2023-05-09T14:35:53.497Z,101583.70
2023-05-09T14:38:21.909Z,101574.75
2023-05-09T14:40:50.153Z,101569.61
2023-05-09T14:43:18.429Z,101572.64
2023-05-09T14:45:47.135Z,101572.67
2023-05-09T14:48:16.291Z,101578.23
2023-05-09T14:50:44.624Z,101575.52
2023-05-09T14:53:13.020Z,101579.55
2023-05-09T14:55:42.772Z,101576.26
2023-05-09T14:58:12.665Z,101572.40
2023-05-09T15:00:41.075Z,101566.25
2023-05-09T15:03:10.009Z,101563.32
2023-05-09T15:05:38.619Z,101561.04
2023-05-09T15:08:06.988Z,101558.39
2023-05-09T15:10:35.279Z,101558.60
2023-05-09T15:13:05.503Z,101557.25
2023-05-09T15:15:34.469Z,101553.52
2023-05-09T15:18:02.684Z,101547.08
2023-05-09T15:20:31.032Z,101543.00
2023-05-09T15:22:59.625Z,101540.08
2023-05-09T15:25:27.984Z,101534.50
2023-05-09T15:27:56.259Z,101528.44
2023-05-09T15:30:24.803Z,101527.21
2023-05-09T15:32:53.152Z,101529.52
2023-05-09T15:35:21.734Z,101521.48
2023-05-09T15:37:50.124Z,101517.52
2023-05-09T15:40:18.653Z,101522.48
2023-05-09T15:42:47.858Z,101520.20
2023-05-09T15:45:16.156Z,101526.63
2023-05-09T15:47:44.478Z,101524.95
2023-05-09T15:50:13.241Z,101521.55
2023-05-09T15:52:41.656Z,101522.81
2023-05-09T15:55:12.598Z,101519.50
2023-05-09T15:57:40.929Z,101516.05
2023-05-09T16:00:11.719Z,101510.40
2023-05-09T16:02:43.473Z,101514.30
2023-05-09T16:05:12.339Z,101511.98
2023-05-09T16:07:41.614Z,101507.58
2023-05-09T16:10:10.634Z,101504.77
2023-05-09T16:12:38.967Z,101499.80
2023-05-09T16:15:09.062Z,101501.23
2023-05-09T16:17:37.440Z,101499.09
2023-05-09T16:20:07.892Z,101495.63
2023-05-09T16:22:36.144Z,101488.71
2023-05-09T16:25:06.325Z,101487.95
2023-05-09T16:27:34.774Z,101485.20
2023-05-09T16:30:03.938Z,101487.63
2023-05-09T16:32:32.205Z,101481.65
2023-05-09T16:35:00.793Z,101481.62
2023-05-09T16:37:29.175Z,101478.02
2023-05-09T16:39:58.777Z,101477.23
2023-05-09T16:42:27.903Z,101477.14
2023-05-09T16:44:56.691Z,101477.27
2023-05-09T16:47:25.202Z,101469.70
2023-05-09T16:49:53.637Z,101467.22
2023-05-09T16:52:23.407Z,101465.02
2023-05-09T16:54:53.957Z,101464.55
2023-05-09T16:57:22.480Z,101461.90
2023-05-09T16:59:50.864Z,101459.10
2023-05-09T17:02:19.235Z,101459.16
2023-05-09T17:04:48.011Z,101449.11
2023-05-09T17:07:16.496Z,101452.05
2023-05-09T17:09:44.838Z,101452.67
2023-05-09T17:12:16.875Z,101450.13
2023-05-09T17:14:45.399Z,101449.90
2023-05-09T17:17:14.422Z,101449.09
2023-05-09T17:19:43.216Z,101446.35
2023-05-09T17:22:11.564Z,101447.73
2023-05-09T17:24:41.005Z,101443.73
2023-05-09T17:27:10.813Z,101444.73
2023-05-09T17:29:39.462Z,101449.98
2023-05-09T17:32:07.977Z,101450.39
2023-05-09T17:34:37.258Z,101449.38
2023-05-09T17:37:06.631Z,101451.60
2023-05-09T17:39:36.941Z,101452.92
2023-05-09T17:42:06.174Z,101451.50
2023-05-09T17:44:34.511Z,101450.60
2023-05-09T17:47:02.867Z,101453.78
2023-05-09T17:49:31.184Z,101455.11
2023-05-09T17:51:59.451Z,101459.54
2023-05-09T17:54:28.050Z,101457.92
2023-05-09T17:57:00.470Z,101458.05
2023-05-09T17:59:28.949Z,101464.77
2023-05-09T18:01:57.381Z,101465.19
2023-05-09T18:04:29.480Z,101462.06
2023-05-09T18:06:57.912Z,101462.16
2023-05-09T18:09:26.174Z,101464.13
2023-05-09T18:11:54.493Z,101463.64
2023-05-09T18:14:22.789Z,101465.33
2023-05-09T18:16:51.368Z,101469.64
2023-05-09T18:19:19.836Z,101469.00
2023-05-09T18:21:48.328Z,101466.95
2023-05-09T18:24:18.664Z,101471.78
2023-05-09T18:26:48.368Z,101472.65
2023-05-09T18:29:16.834Z,101474.23
2023-05-09T18:31:45.262Z,101473.67
2023-05-09T18:34:14.625Z,101472.23
2023-05-09T18:36:43.158Z,101471.65
2023-05-09T18:39:13.147Z,101472.45
2023-05-09T18:41:44.991Z,101476.36
2023-05-09T18:44:13.316Z,101474.31
2023-05-09T18:46:41.665Z,101479.25
2023-05-09T18:49:10.492Z,101479.44
2023-05-09T18:51:38.884Z,101486.59
2023-05-09T18:54:07.543Z,101489.70
2023-05-09T18:56:38.650Z,101490.66
2023-05-09T18:59:08.798Z,101491.28
2023-05-09T19:01:37.431Z,101491.73
2023-05-09T19:04:06.103Z,101488.46
2023-05-09T19:06:34.531Z,101488.91
2023-05-09T19:09:03.639Z,101487.05
2023-05-09T19:11:32.029Z,101490.02
2023-05-09T19:14:00.476Z,101488.63
2023-05-09T19:16:28.851Z,101482.54
2023-05-09T19:18:57.688Z,101479.89
2023-05-09T19:21:26.135Z,101479.94
2023-05-09T19:23:54.468Z,101479.42
2023-05-09T19:26:21.840Z,101481.03
2023-05-09T19:28:50.128Z,101481.20
2023-05-09T19:31:18.184Z,101482.90
2023-05-09T19:33:47.366Z,101484.98
2023-05-09T19:36:17.160Z,101482.50
2023-05-09T19:38:45.455Z,101479.30
2023-05-09T19:41:13.754Z,101477.80
2023-05-09T19:43:42.372Z,101481.16
2023-05-09T19:46:10.787Z,101483.50
2023-05-09T19:48:39.733Z,101483.05
2023-05-09T19:51:11.544Z,101479.98
2023-05-09T19:53:40.317Z,101481.30
2023-05-09T19:56:09.252Z,101478.92
2023-05-09T19:58:37.640Z,101478.30
2023-05-09T20:01:06.422Z,101475.96
2023-05-09T20:03:36.119Z,101475.33
2023-05-09T20:06:05.109Z,101470.24
2023-05-09T20:08:33.502Z,101470.92
2023-05-09T20:11:00.921Z,101477.02
2023-05-09T20:13:29.213Z,101480.67
2023-05-09T20:15:58.311Z,101479.24
2023-05-09T20:18:26.716Z,101477.85
2023-05-09T20:20:54.338Z,101478.52
2023-05-09T20:23:22.572Z,101472.98
2023-05-09T20:25:50.898Z,101476.13
2023-05-09T20:28:19.888Z,101462.27
2023-05-09T20:30:48.254Z,101470.73
2023-05-09T20:33:16.731Z,101469.83
2023-05-09T20:35:45.050Z,101471.41
2023-05-09T20:38:13.465Z,101470.20
2023-05-09T20:40:40.988Z,101470.38
2023-05-09T20:43:09.408Z,101468.68
2023-05-09T20:45:36.995Z,101471.30
2023-05-09T20:48:07.350Z,101468.55
2023-05-09T20:50:35.658Z,101466.65
2023-05-09T20:53:04.035Z,101461.91
2023-05-09T20:55:32.469Z,101462.77
2023-05-09T20:57:59.920Z,101463.08
2023-05-09T21:00:28.505Z,101462.15
2023-05-09T21:02:58.489Z,101466.10
2023-05-09T21:05:27.309Z,101469.20
2023-05-09T21:07:55.685Z,101468.59
2023-05-09T21:10:24.123Z,101467.09
2023-05-09T21:12:51.561Z,101465.95
2023-05-09T21:15:20.239Z,101465.34
2023-05-09T21:17:48.523Z,101465.95
2023-05-09T21:20:17.525Z,101461.01
2023-05-09T21:22:46.047Z,101460.94
2023-05-09T21:25:15.662Z,101463.27
2023-05-09T21:27:44.476Z,101465.27
2023-05-09T21:30:13.402Z,101465.88
2023-05-09T21:32:42.272Z,101456.80
2023-05-09T21:35:12.389Z,101463.43
2023-05-09T21:37:40.747Z,101466.45
2023-05-09T21:40:11.778Z,101463.77
2023-05-09T21:42:40.468Z,101460.36
2023-05-09T21:45:10.223Z,101461.86
2023-05-09T21:47:39.208Z,101462.47
2023-05-09T21:50:08.725Z,101462.01
2023-05-09T21:52:37.495Z,101461.91
2023-05-09T21:55:06.600Z,101462.54
2023-05-09T21:57:35.099Z,101462.79
2023-05-09T22:00:04.536Z,101462.17
2023-05-09T22:02:42.188Z,101463.83
2023-05-09T22:05:11.972Z,101466.39
2023-05-09T22:07:40.758Z,101462.31
2023-05-09T22:10:10.628Z,101462.21
2023-05-09T22:12:39.090Z,101465.77
2023-05-09T22:15:08.792Z,101464.61
2023-05-09T22:17:37.081Z,101461.92
2023-05-09T22:20:07.428Z,101465.48
2023-05-09T22:22:35.834Z,101461.58
2023-05-09T22:25:05.335Z,101459.04
2023-05-09T22:27:33.777Z,101460.33
2023-05-09T22:30:02.128Z,101458.11
2023-05-09T22:32:30.581Z,101455.39
2023-05-09T22:34:58.028Z,101451.38
2023-05-09T22:37:26.452Z,101447.72
2023-05-09T22:39:55.084Z,101448.20
2023-05-09T22:42:23.339Z,101445.36
2023-05-09T22:44:52.172Z,101442.54
2023-05-09T22:47:21.590Z,101443.55
2023-05-09T22:49:50.413Z,101445.64
2023-05-09T22:52:18.902Z,101446.36
2023-05-09T22:54:47.314Z,101446.73
2023-05-09T22:57:17.159Z,101443.98
2023-05-09T22:59:45.482Z,101443.11
2023-05-09T23:02:13.975Z,101443.34
2023-05-09T23:04:42.365Z,101445.84
2023-05-09T23:07:09.961Z,101446.63
2023-05-09T23:09:38.400Z,101446.20
2023-05-09T23:12:08.970Z,101441.97
2023-05-09T23:14:37.429Z,101448.61
2023-05-09T23:17:05.731Z,101448.86
2023-05-09T23:19:34.075Z,101446.15
2023-05-09T23:22:02.445Z,101444.67
2023-05-09T23:24:30.870Z,101444.52
2023-05-09T23:26:59.249Z,101441.64
2023-05-09T23:29:27.577Z,101440.30
2023-05-09T23:31:56.312Z,101439.86
2023-05-09T23:34:24.806Z,101439.78
2023-05-09T23:36:53.111Z,101439.48
2023-05-09T23:39:21.490Z,101438.59
2023-05-09T23:41:49.793Z,101437.17
2023-05-09T23:44:18.183Z,101437.30
2023-05-09T23:46:46.563Z,101436.57
2023-05-09T23:49:15.083Z,101432.89
2023-05-09T23:51:43.407Z,101429.59
2023-05-09T23:54:11.802Z,101426.30
2023-05-09T23:56:40.385Z,101429.10
2023-05-09T23:59:08.800Z,101421.66
